createdAt,value
2022-10-23T00:00:20.453Z,12.69
2022-10-23T00:03:22.683Z,12.46
2022-10-23T00:06:25.911Z,12.45
2022-10-23T00:09:28.068Z,12.45
2022-10-23T00:12:30.350Z,12.49
2022-10-23T00:15:35.170Z,12.42
2022-10-23T00:18:38.421Z,12.44
2022-10-23T00:21:41.027Z,12.46
2022-10-23T00:24:43.267Z,12.30
2022-10-23T00:27:45.494Z,12.14
2022-10-23T00:30:47.667Z,11.82
2022-10-23T00:33:51.385Z,11.66
2022-10-23T00:36:53.548Z,11.58
2022-10-23T00:39:55.729Z,11.60
2022-10-23T00:42:57.913Z,11.47
2022-10-23T00:46:00.085Z,11.44
2022-10-23T00:49:03.425Z,11.40
2022-10-23T00:52:09.239Z,11.49
2022-10-23T00:55:11.459Z,11.47
2022-10-23T00:58:14.961Z,11.28
2022-10-23T01:01:19.965Z,11.16
2022-10-23T01:04:23.595Z,11.05
2022-10-23T01:07:50.335Z,11.00
2022-10-23T01:11:07.733Z,10.98
2022-10-23T01:14:16.133Z,11.11
2022-10-23T01:17:27.224Z,11.19
2022-10-23T01:20:43.806Z,11.32
2022-10-23T01:23:51.829Z,11.26
2022-10-23T01:27:19.967Z,11.04
2022-10-23T01:30:22.836Z,10.88
2022-10-23T01:33:31.860Z,10.80
2022-10-23T01:36:37.257Z,10.80
2022-10-23T01:39:46.814Z,10.91
2022-10-23T01:42:55.006Z,11.00
2022-10-23T01:46:05.588Z,10.95
2022-10-23T01:49:13.299Z,10.97
2022-10-23T01:52:18.078Z,10.88
2022-10-23T01:55:23.859Z,10.74
2022-10-23T01:58:28.089Z,10.71
2022-10-23T02:01:33.121Z,10.61
2022-10-23T02:05:03.946Z,10.75
2022-10-23T02:08:07.166Z,10.98
2022-10-23T02:11:12.859Z,11.11
2022-10-23T02:14:28.615Z,11.28
2022-10-23T02:17:51.259Z,11.36
2022-10-23T02:21:02.058Z,11.16
2022-10-23T02:24:11.692Z,11.01
2022-10-23T02:27:34.009Z,11.01
2022-10-23T02:30:41.300Z,11.02
2022-10-23T02:33:47.161Z,10.92
2022-10-23T02:36:49.388Z,10.87
2022-10-23T02:39:55.016Z,10.56
2022-10-23T02:43:10.691Z,10.32
2022-10-23T02:46:27.792Z,10.02
2022-10-23T02:49:57.628Z,9.48
2022-10-23T02:53:05.675Z,9.55
2022-10-23T02:56:17.972Z,9.44
2022-10-23T02:59:27.797Z,9.71
2022-10-23T03:02:44.060Z,9.88
2022-10-23T03:05:48.320Z,10.08
2022-10-23T03:08:54.404Z,9.96
2022-10-23T03:11:56.710Z,9.93
2022-10-23T03:14:59.159Z,9.95
2022-10-23T03:18:01.327Z,10.02
2022-10-23T03:21:04.335Z,10.23
2022-10-23T03:24:09.113Z,10.33
2022-10-23T03:27:16.598Z,10.40
2022-10-23T03:30:19.687Z,10.54
2022-10-23T03:33:25.885Z,10.60
2022-10-23T03:36:28.037Z,10.92
2022-10-23T03:39:30.247Z,11.01
2022-10-23T03:42:32.535Z,10.98
2022-10-23T03:45:34.780Z,10.94
2022-10-23T03:48:38.287Z,10.98
2022-10-23T03:51:41.788Z,11.02
2022-10-23T03:54:43.991Z,11.04
2022-10-23T03:57:46.307Z,10.95
2022-10-23T04:00:48.531Z,10.84
2022-10-23T04:03:50.842Z,10.65
2022-10-23T04:06:53.120Z,10.54
2022-10-23T04:09:56.168Z,10.46
2022-10-23T04:12:59.471Z,10.41
2022-10-23T04:16:02.963Z,10.33
2022-10-23T04:19:05.152Z,10.13
2022-10-23T04:22:07.780Z,9.98
2022-10-23T04:25:16.729Z,9.98
2022-10-23T04:28:23.090Z,10.08
2022-10-23T04:31:25.471Z,10.17
2022-10-23T04:34:27.653Z,10.33
2022-10-23T04:37:29.877Z,10.29
2022-10-23T04:40:32.223Z,10.37
2022-10-23T04:43:34.964Z,10.40
2022-10-23T04:46:38.877Z,10.57
2022-10-23T04:49:41.332Z,10.64
2022-10-23T04:53:02.044Z,10.70
2022-10-23T04:56:14.990Z,10.80
2022-10-23T04:59:26.228Z,10.81
2022-10-23T05:02:28.411Z,10.74
2022-10-23T05:05:30.722Z,10.81
2022-10-23T05:08:41.346Z,10.88
2022-10-23T05:12:16.083Z,10.88
2022-10-23T05:15:18.315Z,10.84
2022-10-23T05:18:24.945Z,10.78
2022-10-23T05:21:31.925Z,10.70
2022-10-23T05:24:34.988Z,10.67
2022-10-23T05:27:41.254Z,10.65
2022-10-23T05:30:46.721Z,10.68
2022-10-23T05:33:49.861Z,10.85
2022-10-23T05:36:55.226Z,10.78
2022-10-23T05:39:59.402Z,10.82
2022-10-23T05:43:01.690Z,10.78
2022-10-23T05:46:24.139Z,10.77
2022-10-23T05:50:01.607Z,10.88
2022-10-23T05:53:22.132Z,10.97
2022-10-23T05:56:43.145Z,11.02
2022-10-23T05:59:54.953Z,11.21
2022-10-23T06:03:23.210Z,11.29
2022-10-23T06:06:25.486Z,11.39
2022-10-23T06:09:27.776Z,11.36
2022-10-23T06:12:33.432Z,11.36
2022-10-23T06:15:35.951Z,11.49
2022-10-23T06:18:44.650Z,11.52
2022-10-23T06:21:49.847Z,11.47
2022-10-23T06:24:52.685Z,11.53
2022-10-23T06:27:59.798Z,11.59
2022-10-23T06:31:06.612Z,11.70
2022-10-23T06:34:11.660Z,11.80
2022-10-23T06:37:14.265Z,11.98
2022-10-23T06:40:21.514Z,12.07
2022-10-23T06:43:33.397Z,12.11
2022-10-23T06:46:55.708Z,11.86
2022-10-23T06:50:21.007Z,11.86
2022-10-23T06:53:24.913Z,11.94
2022-10-23T06:56:35.210Z,11.93
2022-10-23T06:59:40.699Z,11.97
2022-10-23T07:02:44.612Z,12.11
2022-10-23T07:05:49.767Z,12.28
2022-10-23T07:08:52.279Z,12.20
2022-10-23T07:12:12.718Z,12.14
2022-10-23T07:15:21.972Z,12.32
2022-10-23T07:18:24.247Z,12.31
2022-10-23T07:21:46.370Z,12.34
2022-10-23T07:25:11.618Z,12.30
2022-10-23T07:28:15.435Z,12.42
2022-10-23T07:31:17.853Z,12.66
2022-10-23T07:34:38.568Z,12.83
2022-10-23T07:38:03.442Z,12.99
2022-10-23T07:41:11.642Z,12.89
2022-10-23T07:44:15.124Z,13.02
2022-10-23T07:47:17.540Z,13.06
2022-10-23T07:50:23.842Z,13.10
2022-10-23T07:53:26.028Z,13.24
2022-10-23T07:56:31.441Z,13.40
2022-10-23T07:59:52.276Z,13.50
2022-10-23T08:02:56.783Z,13.75
2022-10-23T08:05:59.817Z,13.73
2022-10-23T08:09:06.296Z,13.75
2022-10-23T08:12:10.578Z,13.75
2022-10-23T08:15:12.891Z,13.84
2022-10-23T08:18:26.975Z,13.82
2022-10-23T08:21:32.347Z,13.67
2022-10-23T08:24:34.590Z,13.63
2022-10-23T08:27:36.870Z,13.94
2022-10-23T08:30:39.452Z,14.11
2022-10-23T08:33:42.969Z,14.43
2022-10-23T08:36:45.577Z,14.53
2022-10-23T08:39:51.291Z,14.53
2022-10-23T08:43:10.402Z,14.73
2022-10-23T08:46:19.975Z,14.49
2022-10-23T08:49:56.552Z,14.94
2022-10-23T08:53:41.123Z,14.75
2022-10-23T08:56:48.211Z,14.57
2022-10-23T09:00:04.160Z,14.55
2022-10-23T09:03:06.443Z,14.45
2022-10-23T09:06:25.333Z,14.62
2022-10-23T09:09:48.910Z,15.06
2022-10-23T09:12:51.234Z,14.75
2022-10-23T09:15:59.730Z,14.97
2022-10-23T09:19:02.567Z,15.11
2022-10-23T09:22:05.908Z,14.81
2022-10-23T09:25:16.114Z,15.03
2022-10-23T09:28:27.250Z,15.24
2022-10-23T09:31:29.415Z,15.10
2022-10-23T09:34:34.286Z,15.03
2022-10-23T09:37:46.206Z,15.27
2022-10-23T09:40:50.087Z,15.58
2022-10-23T09:44:07.613Z,15.57
2022-10-23T09:47:12.062Z,15.73
2022-10-23T09:50:20.389Z,15.75
2022-10-23T09:53:50.495Z,16.06
2022-10-23T09:56:54.993Z,16.12
2022-10-23T10:00:01.553Z,16.07
2022-10-23T10:03:23.266Z,16.21
2022-10-23T10:09:43.832Z,15.73
2022-10-23T10:12:59.094Z,15.89
2022-10-23T10:16:14.135Z,16.30
2022-10-23T10:19:25.519Z,16.21
2022-10-23T10:22:49.691Z,16.12
2022-10-23T10:26:00.168Z,16.58
2022-10-23T10:29:08.039Z,16.74
2022-10-23T10:32:38.894Z,16.64
2022-10-23T10:35:43.199Z,16.65
2022-10-23T10:38:50.741Z,16.98
2022-10-23T10:42:25.836Z,16.87
2022-10-23T10:45:33.990Z,17.04
2022-10-23T10:48:57.020Z,16.82
2022-10-23T10:52:31.114Z,16.74
2022-10-23T10:55:40.730Z,17.80
2022-10-23T10:58:48.285Z,18.89
2022-10-23T11:01:59.785Z,17.94
2022-10-23T11:05:46.322Z,17.56
2022-10-23T11:08:57.349Z,17.79
2022-10-23T11:12:00.107Z,17.20
2022-10-23T11:15:02.350Z,17.36
2022-10-23T11:18:13.446Z,17.47
2022-10-23T11:21:30.723Z,17.52
2022-10-23T11:24:52.367Z,17.62
2022-10-23T11:28:11.360Z,17.57
2022-10-23T11:31:35.471Z,17.46
2022-10-23T11:34:52.587Z,17.46
2022-10-23T11:38:20.108Z,17.40
2022-10-23T11:41:27.130Z,17.47
2022-10-23T11:44:36.651Z,17.47
2022-10-23T11:47:40.799Z,17.84
2022-10-23T11:50:46.221Z,17.66
2022-10-23T11:53:48.399Z,17.79
2022-10-23T11:57:10.066Z,17.59
2022-10-23T12:00:23.295Z,17.42
2022-10-23T12:03:35.147Z,17.14
2022-10-23T12:06:52.457Z,17.28
2022-10-23T12:10:00.305Z,17.38
2022-10-23T12:13:05.428Z,17.15
2022-10-23T12:16:07.810Z,17.23
2022-10-23T12:19:21.227Z,16.98
2022-10-23T12:22:28.169Z,17.05
2022-10-23T12:26:15.051Z,16.60
2022-10-23T12:29:23.056Z,16.43
2022-10-23T12:32:46.689Z,16.40
2022-10-23T12:36:33.371Z,16.40
2022-10-23T12:39:38.949Z,16.43
2022-10-23T12:42:41.705Z,16.23
2022-10-23T12:45:44.696Z,16.02
2022-10-23T12:48:55.040Z,15.99
2022-10-23T12:52:16.468Z,16.02
2022-10-23T12:55:18.947Z,16.03
2022-10-23T12:58:32.716Z,16.14
2022-10-23T13:01:40.434Z,16.19
2022-10-23T13:04:45.313Z,16.14
2022-10-23T13:07:48.503Z,16.05
2022-10-23T13:10:54.198Z,15.99
2022-10-23T13:13:57.865Z,15.93
2022-10-23T13:17:06.484Z,15.95
2022-10-23T13:20:17.543Z,15.97
2022-10-23T13:23:32.917Z,16.16
2022-10-23T13:26:45.112Z,16.10
2022-10-23T13:29:47.515Z,16.20
2022-10-23T13:32:49.678Z,16.20
2022-10-23T13:36:00.188Z,16.19
2022-10-23T13:39:12.979Z,16.20
2022-10-23T13:42:16.112Z,16.29
2022-10-23T13:45:26.758Z,16.50
2022-10-23T13:48:29.427Z,16.61
2022-10-23T13:51:40.181Z,16.60
2022-10-23T13:54:44.905Z,16.68
2022-10-23T13:57:47.132Z,16.65
2022-10-23T14:00:51.174Z,16.70
2022-10-23T14:03:54.560Z,16.70
2022-10-23T14:06:58.509Z,16.48
2022-10-23T14:10:00.768Z,16.36
2022-10-23T14:13:02.959Z,16.36
2022-10-23T14:16:05.834Z,16.40
2022-10-23T14:19:08.660Z,16.48
2022-10-23T14:22:10.913Z,16.43
2022-10-23T14:25:13.154Z,16.30
2022-10-23T14:28:16.163Z,16.26
2022-10-23T14:31:18.610Z,16.16
2022-10-23T14:34:21.021Z,16.07
2022-10-23T14:37:23.258Z,16.06
2022-10-23T14:40:25.566Z,16.14
2022-10-23T14:43:27.857Z,16.31
2022-10-23T14:46:30.072Z,16.29
2022-10-23T14:49:33.457Z,16.37
2022-10-23T14:52:35.611Z,16.33
2022-10-23T14:55:37.939Z,16.21
2022-10-23T14:58:40.511Z,16.34
2022-10-23T15:01:45.920Z,16.13
2022-10-23T15:04:50.320Z,16.10
2022-10-23T15:07:52.498Z,16.09
2022-10-23T15:11:04.230Z,16.03
2022-10-23T15:14:14.497Z,16.02
2022-10-23T15:17:16.655Z,15.97
2022-10-23T15:20:18.821Z,15.97
2022-10-23T15:23:20.983Z,15.99
2022-10-23T15:26:25.401Z,15.97
2022-10-23T15:29:27.608Z,15.90
2022-10-23T15:32:29.791Z,15.89
2022-10-23T15:35:32.126Z,15.86
2022-10-23T15:38:34.273Z,15.95
2022-10-23T15:41:38.546Z,15.93
2022-10-23T15:44:41.312Z,15.90
2022-10-23T15:47:43.770Z,15.89
2022-10-23T15:50:45.998Z,15.89
2022-10-23T15:53:48.395Z,15.90
2022-10-23T15:56:53.490Z,15.92
2022-10-23T15:59:55.692Z,15.99
2022-10-23T16:02:58.086Z,15.93
2022-10-23T16:06:07.629Z,15.97
2022-10-23T16:09:09.842Z,15.99
2022-10-23T16:12:12.031Z,15.97
2022-10-23T16:15:15.487Z,15.92
2022-10-23T16:18:18.786Z,15.79
2022-10-23T16:21:23.621Z,15.76
2022-10-23T16:24:25.855Z,15.68
2022-10-23T16:27:28.033Z,15.62
2022-10-23T16:30:30.432Z,15.58
2022-10-23T16:33:32.598Z,15.58
2022-10-23T16:36:38.970Z,15.52
2022-10-23T16:40:08.913Z,15.59
2022-10-23T16:43:30.055Z,15.52
2022-10-23T16:46:40.274Z,15.58
2022-10-23T16:49:42.633Z,15.57
2022-10-23T16:52:45.196Z,15.61
2022-10-23T16:55:47.666Z,15.69
2022-10-23T16:58:50.341Z,15.75
2022-10-23T17:01:53.268Z,15.79
2022-10-23T17:04:55.529Z,15.73
2022-10-23T17:07:57.690Z,15.70
2022-10-23T17:11:10.830Z,15.63
2022-10-23T17:14:18.323Z,15.65
2022-10-23T17:17:20.668Z,15.72
2022-10-23T17:20:22.943Z,15.62
2022-10-23T17:23:26.327Z,15.65
2022-10-23T17:26:28.747Z,15.59
2022-10-23T17:29:30.931Z,15.70
2022-10-23T17:32:35.932Z,15.59
2022-10-23T17:35:39.480Z,15.42
2022-10-23T17:38:43.495Z,15.39
2022-10-23T17:41:46.292Z,15.39
2022-10-23T17:44:48.453Z,15.54
2022-10-23T17:47:50.622Z,15.47
2022-10-23T17:51:08.484Z,15.39
2022-10-23T17:54:12.200Z,15.41
2022-10-23T17:57:14.391Z,15.39
2022-10-23T18:00:16.924Z,15.44
2022-10-23T18:03:19.920Z,15.45
2022-10-23T18:06:28.889Z,15.44
2022-10-23T18:09:32.032Z,15.41
2022-10-23T18:12:34.241Z,15.41
2022-10-23T18:15:36.634Z,15.44
2022-10-23T18:18:40.610Z,15.38
2022-10-23T18:21:42.850Z,15.42
2022-10-23T18:24:45.007Z,15.49
2022-10-23T18:27:47.159Z,15.49
2022-10-23T18:30:52.122Z,15.55
2022-10-23T18:33:59.025Z,15.55
2022-10-23T18:37:01.327Z,15.61
2022-10-23T18:40:04.184Z,15.63
2022-10-23T18:43:11.661Z,15.69
2022-10-23T18:46:18.070Z,15.72
2022-10-23T18:49:20.499Z,15.75
2022-10-23T18:52:22.665Z,15.72
2022-10-23T18:55:24.864Z,15.75
2022-10-23T18:58:27.058Z,15.76
2022-10-23T19:01:30.650Z,15.79
2022-10-23T19:04:35.613Z,15.79
2022-10-23T19:07:43.739Z,15.78
2022-10-23T19:10:47.115Z,15.75
2022-10-23T19:13:49.648Z,15.75
2022-10-23T19:16:54.455Z,15.75
2022-10-23T19:20:12.524Z,15.75
2022-10-23T19:23:15.963Z,15.75
2022-10-23T19:26:18.326Z,15.76
2022-10-23T19:29:23.216Z,15.69
2022-10-23T19:32:25.373Z,15.72
2022-10-23T19:35:27.791Z,15.70
2022-10-23T19:38:30.048Z,15.75
2022-10-23T19:41:39.144Z,15.72
2022-10-23T19:44:41.359Z,15.75
2022-10-23T19:47:50.160Z,15.76
2022-10-23T19:50:52.335Z,15.82
2022-10-23T19:53:54.918Z,15.78
2022-10-23T19:56:57.222Z,15.78
2022-10-23T20:00:00.154Z,15.81
2022-10-23T20:03:02.473Z,15.85
2022-10-23T20:06:07.457Z,15.79
2022-10-23T20:09:09.907Z,15.83
2022-10-23T20:12:12.083Z,15.85
2022-10-23T20:15:17.505Z,15.82
2022-10-23T20:18:19.670Z,15.75
2022-10-23T20:21:22.582Z,15.72
2022-10-23T20:24:24.804Z,15.68
2022-10-23T20:27:27.763Z,15.59
2022-10-23T20:30:30.057Z,15.54
2022-10-23T20:33:32.261Z,15.49
2022-10-23T20:36:45.418Z,15.44
2022-10-23T20:39:49.108Z,15.41
2022-10-23T20:42:51.237Z,15.31
2022-10-23T20:45:53.397Z,15.28
2022-10-23T20:48:55.551Z,15.21
2022-10-23T20:51:57.784Z,15.21
2022-10-23T20:54:59.993Z,15.11
2022-10-23T20:58:09.026Z,15.04
2022-10-23T21:01:14.636Z,15.01
2022-10-23T21:04:19.861Z,15.01
2022-10-23T21:07:22.027Z,15.03
2022-10-23T21:10:24.218Z,15.08
2022-10-23T21:13:26.922Z,15.10
2022-10-23T21:16:33.144Z,15.11
2022-10-23T21:19:35.368Z,15.12
2022-10-23T21:22:37.531Z,15.12
2022-10-23T21:25:40.901Z,15.14
2022-10-23T21:28:55.621Z,15.17
2022-10-23T21:32:03.253Z,15.17
2022-10-23T21:35:06.066Z,15.21
2022-10-23T21:38:08.479Z,15.20
2022-10-23T21:41:17.424Z,15.20
2022-10-23T21:44:19.649Z,15.14
2022-10-23T21:47:21.939Z,15.11
2022-10-23T21:50:24.104Z,15.08
2022-10-23T21:53:26.743Z,15.06
2022-10-23T21:56:41.677Z,15.03
2022-10-23T21:59:43.902Z,15.01
2022-10-23T22:02:46.497Z,15.00
2022-10-23T22:05:49.003Z,14.97
2022-10-23T22:08:52.073Z,14.93
2022-10-23T22:11:55.248Z,14.88
2022-10-23T22:14:57.719Z,14.87
2022-10-23T22:18:00.480Z,14.80
2022-10-23T22:21:05.165Z,14.73
2022-10-23T22:24:08.352Z,14.69
2022-10-23T22:27:10.503Z,14.59
2022-10-23T22:30:12.936Z,14.52
2022-10-23T22:33:15.107Z,14.49
2022-10-23T22:36:18.080Z,14.43
2022-10-23T22:39:20.622Z,14.42
2022-10-23T22:42:22.789Z,14.33
2022-10-23T22:45:24.931Z,14.22
2022-10-23T22:48:27.653Z,14.18
2022-10-23T22:51:30.289Z,14.12
2022-10-23T22:54:32.530Z,14.09
2022-10-23T22:57:34.698Z,14.06
2022-10-23T23:00:42.841Z,14.06
2022-10-23T23:03:46.698Z,14.02
2022-10-23T23:06:48.960Z,14.01
2022-10-23T23:09:51.111Z,13.97
2022-10-23T23:12:53.282Z,13.95
2022-10-23T23:15:56.140Z,13.92
2022-10-23T23:19:00.715Z,13.85
2022-10-23T23:22:03.485Z,13.86
2022-10-23T23:25:06.101Z,13.79
2022-10-23T23:28:08.423Z,13.77
2022-10-23T23:31:28.431Z,13.68
2022-10-23T23:34:30.653Z,13.68
2022-10-23T23:37:32.811Z,13.63
2022-10-23T23:40:35.199Z,13.58
2022-10-23T23:43:37.378Z,13.54
2022-10-23T23:46:39.527Z,13.54
2022-10-23T23:49:41.705Z,13.46
2022-10-23T23:52:44.281Z,13.47
2022-10-23T23:55:46.549Z,13.46
2022-10-23T23:58:48.762Z,13.43
